Time;durP1;ratioP1;P1;durP2;ratioP2;P2;SDS_P1;SDS_P2;PMS_P1;PMS_P2;Temp;Humidity;BMP_temperature;BMP_pressure;BME280_temperature;BME280_humidity;BME280_pressure;Samples;Min_cycle;Max_cycle;Signal;HPM_P1;HPM_P2
2020/12/07 00:00:46;;;;;;;17.92;11.25;;;;;;;7.03;87.69;99338.63;4976654;28;20070;-52
2020/12/07 00:03:13;;;;;;;18.30;11.07;;;;;;;6.98;87.07;99344.44;4978466;28;20054;-53
2020/12/07 00:05:39;;;;;;;16.00;10.73;;;;;;;7.05;87.33;99342.03;4981198;28;20129;-52
2020/12/07 00:08:07;;;;;;;16.63;10.38;;;;;;;7.01;87.50;99335.19;4982635;28;20082;-48
2020/12/07 00:10:34;;;;;;;20.85;11.68;;;;;;;7.20;86.63;99350.78;4980652;28;20507;-50
2020/12/07 00:13:01;;;;;;;18.20;11.23;;;;;;;7.04;86.74;99353.06;4980951;28;20054;-49
2020/12/07 00:15:28;;;;;;;19.27;11.80;;;;;;;7.22;85.84;99346.59;4983589;28;20054;-56
2020/12/07 00:17:55;;;;;;;16.23;11.02;;;;;;;7.48;84.86;99352.09;4983736;28;20113;-51
2020/12/07 00:20:21;;;;;;;18.77;11.70;;;;;;;7.43;85.01;99354.56;4981002;28;20113;-52
2020/12/07 00:22:47;;;;;;;15.32;10.82;;;;;;;7.29;85.43;99351.78;4980284;28;20918;-51
2020/12/07 00:25:14;;;;;;;15.32;11.10;;;;;;;7.31;85.55;99345.06;4982280;28;20055;-47
2020/12/07 00:27:41;;;;;;;20.52;11.98;;;;;;;7.25;85.52;99339.84;4983733;28;20101;-48
2020/12/07 00:30:07;;;;;;;17.85;11.75;;;;;;;7.06;86.19;99325.94;4982368;28;20058;-53
2020/12/07 00:32:34;;;;;;;19.73;11.95;;;;;;;7.12;85.99;99325.22;4980053;28;20275;-49
2020/12/07 00:35:03;;;;;;;19.08;11.88;;;;;;;7.12;86.07;99320.13;4980555;28;20051;-47
2020/12/07 00:37:29;;;;;;;20.77;13.30;;;;;;;7.05;86.08;99314.03;4983314;28;20105;-49
2020/12/07 00:39:56;;;;;;;19.17;12.75;;;;;;;6.95;86.69;99318.94;4983462;28;20047;-52
2020/12/07 00:42:23;;;;;;;22.77;14.13;;;;;;;7.00;86.68;99314.81;4979953;28;20055;-52
2020/12/07 00:44:49;;;;;;;20.17;12.85;;;;;;;7.08;86.25;99314.09;4980283;28;20799;-54
2020/12/07 00:47:16;;;;;;;22.05;13.65;;;;;;;6.94;86.54;99314.69;4982084;28;20105;-48
2020/12/07 00:49:43;;;;;;;21.23;13.73;;;;;;;7.00;86.54;99305.47;4983198;28;20129;-48
2020/12/07 00:52:10;;;;;;;21.55;13.55;;;;;;;7.03;86.08;99310.63;4981655;28;20054;-51
2020/12/07 00:54:37;;;;;;;21.10;12.80;;;;;;;7.17;86.15;99307.47;4979719;28;20058;-49
2020/12/07 00:57:04;;;;;;;22.83;14.07;;;;;;;7.12;85.61;99308.25;4980062;28;20124;-49
2020/12/07 00:59:32;;;;;;;19.25;13.07;;;;;;;7.11;85.58;99303.09;4983143;28;20384;-52
2020/12/07 01:01:59;;;;;;;22.63;14.25;;;;;;;7.02;85.94;99320.75;4982703;28;20078;-50
2020/12/07 01:04:25;;;;;;;19.67;13.15;;;;;;;7.18;85.79;99319.34;4979647;28;20055;-52
2020/12/07 01:06:52;;;;;;;22.42;13.45;;;;;;;7.13;86.14;99307.41;4979774;28;20526;-52
2020/12/07 01:09:20;;;;;;;21.95;13.98;;;;;;;7.10;86.01;99309.88;4981716;28;20089;-49
2020/12/07 01:11:53;;;;;;;24.52;13.43;;;;;;;7.23;84.82;99303.31;4982596;28;20050;-47
2020/12/07 01:14:21;;;;;;;19.95;13.38;;;;;;;7.39;84.31;99296.78;4979765;28;20055;-52
2020/12/07 01:16:49;;;;;;;22.38;13.43;;;;;;;7.30;84.35;99299.19;4978805;28;20059;-53
2020/12/07 01:19:15;;;;;;;21.73;14.20;;;;;;;7.27;84.55;99287.28;4981286;28;20650;-47
2020/12/07 01:21:42;;;;;;;19.42;12.63;;;;;;;7.52;83.87;99283.41;4982503;28;20058;-55
2020/12/07 01:24:09;;;;;;;22.67;13.77;;;;;;;7.51;84.21;99278.31;4980986;28;20172;-49
2020/12/07 01:26:35;;;;;;;21.73;12.43;;;;;;;7.50;82.97;99274.91;4979585;28;20046;-47
2020/12/07 01:29:03;;;;;;;23.98;14.88;;;;;;;7.38;83.83;99275.56;4979176;28;20049;-52
2020/12/07 01:31:30;;;;;;;21.08;12.45;;;;;;;7.36;83.97;99271.28;4982646;28;20051;-53
2020/12/07 01:33:57;;;;;;;20.77;13.32;;;;;;;7.47;83.79;99264.66;4982364;28;20133;-52
2020/12/07 01:36:24;;;;;;;20.27;12.48;;;;;;;7.56;83.69;99269.03;4979268;28;20059;-49
2020/12/07 01:38:51;;;;;;;20.83;13.27;;;;;;;7.38;83.67;99267.06;4978804;28;20047;-49
2020/12/07 01:41:18;;;;;;;21.00;13.90;;;;;;;7.53;83.14;99267.28;4981254;28;20050;-46
2020/12/07 01:43:45;;;;;;;23.90;14.00;;;;;;;7.49;82.92;99270.66;4982616;28;20058;-48
2020/12/07 01:46:20;;;;;;;20.55;13.38;;;;;;;7.50;83.14;99272.34;4980402;28;20058;-54
2020/12/07 01:48:47;;;;;;;23.25;12.80;;;;;;;7.60;82.75;99279.28;4978698;28;20498;-52
2020/12/07 01:51:15;;;;;;;22.00;13.18;;;;;;;7.48;82.75;99268.06;4980544;28;20054;-51
2020/12/07 01:53:45;;;;;;;21.90;13.85;;;;;;;7.53;83.12;99261.34;4982087;28;20046;-52
2020/12/07 01:56:18;;;;;;;22.42;13.35;;;;;;;7.77;82.16;99276.16;4980724;28;20069;-46
2020/12/07 01:58:45;;;;;;;21.92;13.68;;;;;;;7.60;82.72;99278.44;4978875;28;20051;-48
2020/12/07 02:01:11;;;;;;;17.05;12.43;;;;;;;7.56;82.71;99269.88;4980283;28;20059;-51
2020/12/07 02:03:38;;;;;;;20.23;13.57;;;;;;;7.51;82.94;99271.50;4982190;28;20054;-49
2020/12/07 02:06:04;;;;;;;20.08;13.13;;;;;;;7.58;82.09;99278.44;4980951;28;20054;-53
2020/12/07 02:08:31;;;;;;;22.25;14.18;;;;;;;7.57;82.65;99276.69;4978366;28;20062;-52
2020/12/07 02:10:58;;;;;;;20.48;13.70;;;;;;;7.39;82.93;99269.66;4978259;28;20141;-47
2020/12/07 02:13:24;;;;;;;19.30;13.23;;;;;;;7.46;82.59;99267.19;4978291;28;20058;-53
2020/12/07 02:15:51;;;;;;;20.30;12.93;;;;;;;7.49;82.88;99259.56;4978154;28;20488;-56
2020/12/07 02:18:17;;;;;;;19.77;13.98;;;;;;;7.57;82.04;99256.31;4980290;28;20511;-49
2020/12/07 02:20:48;;;;;;;20.80;14.00;;;;;;;7.58;81.85;99246.97;4981812;28;20421;-53
2020/12/07 02:23:15;;;;;;;20.65;13.38;;;;;;;7.65;81.71;99259.81;4979182;28;20050;-54
2020/12/07 02:25:42;;;;;;;22.08;12.95;;;;;;;7.74;80.72;99259.09;4978035;28;20514;-53
2020/12/07 02:28:09;;;;;;;17.63;12.52;;;;;;;7.87;80.83;99262.69;4978813;28;20054;-49
2020/12/07 02:30:36;;;;;;;20.52;12.48;;;;;;;7.87;79.96;99253.34;4980483;28;20164;-53
2020/12/07 02:33:04;;;;;;;23.45;13.55;;;;;;;7.66;80.97;99251.34;4980465;28;20064;-53
2020/12/07 02:35:30;;;;;;;21.50;13.07;;;;;;;7.73;80.27;99243.81;4978138;28;20058;-51
2020/12/07 02:37:57;;;;;;;19.67;12.98;;;;;;;7.69;81.13;99236.97;4977594;28;20058;-53
2020/12/07 02:40:23;;;;;;;20.27;13.60;;;;;;;7.81;78.90;99227.78;4981046;28;20054;-55
2020/12/07 02:42:50;;;;;;;19.08;12.65;;;;;;;8.05;78.75;99224.69;4981065;28;20058;-51
2020/12/07 02:45:18;;;;;;;22.23;13.48;;;;;;;7.93;79.06;99244.06;4978646;28;20046;-48
2020/12/07 02:47:45;;;;;;;21.70;13.25;;;;;;;7.69;80.13;99240.34;4977395;28;20061;-50
2020/12/07 02:50:13;;;;;;;21.15;13.13;;;;;;;7.82;80.18;99239.69;4979136;28;20055;-50
2020/12/07 02:52:40;;;;;;;22.23;13.40;;;;;;;7.87;79.78;99230.41;4980718;28;20050;-52
2020/12/07 02:55:08;;;;;;;20.13;14.15;;;;;;;7.68;80.40;99230.16;4980047;28;20085;-54
2020/12/07 02:57:35;;;;;;;19.48;13.80;;;;;;;7.69;80.22;99225.06;4977502;28;20061;-51
2020/12/07 03:00:05;;;;;;;21.33;12.98;;;;;;;7.77;80.15;99232.81;4977460;28;20047;-55
2020/12/07 03:02:32;;;;;;;21.02;13.63;;;;;;;7.63;79.96;99227.53;4963773;28;20070;-51
2020/12/07 03:04:58;;;;;;;20.20;12.95;;;;;;;7.77;80.05;99228.59;4968734;28;20423;-47
2020/12/07 03:07:25;;;;;;;21.20;13.77;;;;;;;7.69;79.51;99237.81;4967239;28;20067;-49
2020/12/07 03:09:51;;;;;;;23.45;14.32;;;;;;;7.71;79.41;99253.09;4947332;28;20059;-50
2020/12/07 03:12:18;;;;;;;21.45;13.98;;;;;;;7.69;79.26;99247.16;4947662;28;20047;-49
2020/12/07 03:14:44;;;;;;;20.70;13.45;;;;;;;7.75;78.83;99245.53;4947427;28;20474;-49
2020/12/07 03:17:11;;;;;;;22.58;14.00;;;;;;;7.66;78.87;99246.25;4947383;28;20043;-47
2020/12/07 03:19:38;;;;;;;25.38;15.07;;;;;;;7.89;78.25;99244.00;4954722;28;20054;-51
2020/12/07 03:22:04;;;;;;;22.55;13.73;;;;;;;7.76;78.70;99246.38;4955062;28;20404;-51
2020/12/07 03:24:31;;;;;;;24.85;14.27;;;;;;;7.88;78.09;99244.84;4954943;28;20050;-56
2020/12/07 03:26:58;;;;;;;22.88;13.57;;;;;;;7.86;78.54;99249.09;4955392;28;20053;-51
2020/12/07 03:29:24;;;;;;;26.45;14.95;;;;;;;7.80;78.41;99248.13;4955452;28;20089;-52
2020/12/07 03:31:51;;;;;;;21.40;13.95;;;;;;;7.85;78.62;99254.16;4970760;28;20047;-50
2020/12/07 03:34:18;;;;;;;21.13;14.10;;;;;;;7.64;78.93;99254.72;4977155;28;20053;-49
2020/12/07 03:36:45;;;;;;;23.92;13.68;;;;;;;7.60;79.32;99248.72;4978155;28;20054;-52
2020/12/07 03:39:11;;;;;;;23.27;14.45;;;;;;;7.63;79.22;99247.91;4976210;28;20418;-48
2020/12/07 03:41:38;;;;;;;23.98;14.25;;;;;;;7.59;79.47;99256.34;4973946;28;20472;-48
2020/12/07 03:44:04;;;;;;;22.85;14.80;;;;;;;7.55;79.09;99236.75;4975271;28;20047;-53
2020/12/07 03:46:31;;;;;;;24.88;14.40;;;;;;;7.71;78.73;99248.00;4977740;28;20459;-53
2020/12/07 03:48:58;;;;;;;22.33;13.40;;;;;;;7.79;77.71;99249.84;4977536;28;20057;-49
2020/12/07 03:51:24;;;;;;;21.60;14.00;;;;;;;7.58;79.11;99240.22;4974545;28;20046;-53
2020/12/07 03:53:51;;;;;;;25.52;13.88;;;;;;;7.49;79.19;99232.44;4974136;28;20611;-50
2020/12/07 03:56:17;;;;;;;21.60;13.52;;;;;;;7.53;78.42;99228.22;4975592;28;20057;-50
2020/12/07 03:58:44;;;;;;;25.92;15.57;;;;;;;7.37;79.34;99234.81;4977466;28;20050;-46
2020/12/07 04:01:10;;;;;;;25.65;14.93;;;;;;;7.40;78.31;99233.16;4975961;28;20042;-49
2020/12/07 04:03:41;;;;;;;24.17;14.43;;;;;;;7.62;77.65;99228.34;4974348;28;20104;-51
2020/12/07 04:06:13;;;;;;;24.15;14.73;;;;;;;7.48;77.83;99229.84;4975412;28;20044;-47
2020/12/07 04:08:39;;;;;;;24.65;15.27;;;;;;;7.32;78.96;99228.78;4977346;28;20413;-56
2020/12/07 04:11:06;;;;;;;22.00;12.77;;;;;;;7.43;77.88;99226.38;4976770;28;20456;-49
2020/12/07 04:13:32;;;;;;;25.10;15.38;;;;;;;7.42;78.20;99222.13;4974586;28;20133;-46
2020/12/07 04:16:02;;;;;;;24.23;14.82;;;;;;;7.40;77.89;99227.22;4974823;28;20049;-52
2020/12/07 04:18:28;;;;;;;24.45;13.80;;;;;;;7.43;78.17;99251.84;4974494;28;20049;-55
2020/12/07 04:21:00;;;;;;;22.35;14.63;;;;;;;7.45;77.17;99237.47;4975052;28;20047;-53
2020/12/07 04:23:28;;;;;;;21.67;15.13;;;;;;;7.27;77.62;99243.13;4974171;28;20543;-47
2020/12/07 04:25:56;;;;;;;23.95;14.23;;;;;;;7.35;77.52;99237.34;4974951;28;20089;-52
2020/12/07 04:28:22;;;;;;;24.15;14.93;;;;;;;7.26;78.51;99234.66;4973056;28;20042;-52
2020/12/07 04:30:49;;;;;;;25.45;15.43;;;;;;;7.27;77.70;99236.34;4977211;28;20058;-47
2020/12/07 04:33:16;;;;;;;21.88;13.85;;;;;;;7.48;77.03;99230.72;4975169;28;20054;-56
2020/12/07 04:35:42;;;;;;;23.15;13.98;;;;;;;7.43;77.35;99224.69;4974279;28;20062;-51
2020/12/07 04:38:09;;;;;;;24.45;15.73;;;;;;;7.15;77.97;99218.34;4974991;28;20049;-49
2020/12/07 04:40:36;;;;;;;25.63;14.10;;;;;;;7.29;77.59;99205.81;4977397;28;20054;-51
2020/12/07 04:43:03;;;;;;;23.70;14.48;;;;;;;7.06;78.17;99219.03;4971680;28;20042;-53
2020/12/07 04:45:30;;;;;;;22.20;13.65;;;;;;;7.38;76.99;99213.59;4969107;28;20058;-50
2020/12/07 04:47:59;;;;;;;24.23;14.90;;;;;;;7.31;77.00;99207.56;4970334;28;20051;-53
2020/12/07 04:50:29;;;;;;;23.08;15.10;;;;;;;7.14;77.60;99219.16;4969308;28;20151;-51
2020/12/07 04:53:04;;;;;;;21.08;14.15;;;;;;;7.04;77.86;99212.22;4951689;28;20419;-50
2020/12/07 04:55:36;;;;;;;23.05;13.63;;;;;;;7.17;77.31;99211.59;4998080;23;20425;-40
2020/12/07 04:58:06;;;;;;;22.23;13.57;;;;;;;7.14;77.22;99214.94;4960597;28;20121;-41
2020/12/07 05:00:34;;;;;;;22.00;14.88;;;;;;;7.20;77.50;99211.63;4972709;28;20038;-40
2020/12/07 05:03:01;;;;;;;24.63;15.07;;;;;;;7.29;76.76;99221.94;4974209;28;20785;-40
2020/12/07 05:05:28;;;;;;;24.90;14.40;;;;;;;7.05;77.74;99221.56;4972332;28;20081;-42
2020/12/07 05:07:55;;;;;;;24.10;14.93;;;;;;;7.22;76.76;99240.53;4973649;28;20109;-40
2020/12/07 05:10:34;;;;;;;23.98;14.00;;;;;;;7.00;77.18;99243.53;4980512;28;20557;-40
2020/12/07 05:13:15;;;;;;;23.58;14.65;;;;;;;6.97;77.74;99235.84;4963660;28;20589;-39
2020/12/07 05:15:43;;;;;;;21.83;14.35;;;;;;;6.93;78.08;99231.53;4965280;28;20093;-45
2020/12/07 05:18:09;;;;;;;24.02;15.38;;;;;;;6.75;77.75;99243.13;4963536;28;20165;-42
2020/12/07 05:20:36;;;;;;;26.33;14.68;;;;;;;6.93;77.40;99251.91;4965379;28;20054;-44
2020/12/07 05:23:03;;;;;;;22.83;14.52;;;;;;;6.81;78.04;99255.09;4963406;28;20478;-42
2020/12/07 05:25:29;;;;;;;21.25;14.18;;;;;;;7.00;77.48;99263.91;4965150;28;20050;-43
2020/12/07 05:27:59;;;;;;;26.52;15.55;;;;;;;6.61;78.31;99257.28;4963865;28;20042;-42
2020/12/07 05:30:40;;;;;;;23.10;14.68;;;;;;;6.71;78.19;99261.72;4954204;28;20384;-42
2020/12/07 05:33:06;;;;;;;22.27;14.55;;;;;;;6.61;79.13;99265.78;4962026;28;20051;-43
2020/12/07 05:35:38;;;;;;;23.77;14.95;;;;;;;6.48;79.38;99268.91;4962516;28;20043;-45
2020/12/07 05:38:06;;;;;;;24.45;14.57;;;;;;;6.85;77.70;99272.13;4953926;28;20051;-42
2020/12/07 05:40:32;;;;;;;23.30;14.95;;;;;;;6.77;77.98;99271.13;4952317;28;20102;-42
2020/12/07 05:42:59;;;;;;;25.40;14.93;;;;;;;6.78;77.92;99268.59;4955724;28;20503;-42
2020/12/07 05:45:26;;;;;;;24.20;15.48;;;;;;;6.49;78.49;99275.72;4952635;28;20055;-40
2020/12/07 05:47:54;;;;;;;25.83;15.98;;;;;;;6.45;79.10;99273.94;4953697;28;20047;-42
2020/12/07 05:50:23;;;;;;;28.63;16.00;;;;;;;6.55;78.29;99280.06;4952911;28;20412;-46
2020/12/07 05:52:54;;;;;;;23.27;15.25;;;;;;;6.36;79.11;99268.66;4952658;28;20050;-47
2020/12/07 05:55:21;;;;;;;23.95;15.80;;;;;;;6.37;79.33;99255.13;4952704;28;20099;-39
2020/12/07 05:58:02;;;;;;;27.40;16.63;;;;;;;6.42;78.96;99262.84;4952195;28;20439;-44
2020/12/07 06:00:31;;;;;;;24.23;15.73;;;;;;;6.54;79.01;99266.47;4951811;28;20047;-40
2020/12/07 06:02:59;;;;;;;23.50;15.05;;;;;;;6.30;79.57;99266.88;4953464;28;20559;-44
2020/12/07 06:05:26;;;;;;;24.60;15.70;;;;;;;6.55;79.25;99280.06;4952295;28;20047;-44
2020/12/07 06:08:09;;;;;;;27.48;16.15;;;;;;;6.41;78.92;99287.41;4952911;28;20494;-42
2020/12/07 06:10:40;;;;;;;25.60;14.35;;;;;;;6.68;77.94;99302.34;4951502;28;20050;-45
2020/12/07 06:13:13;;;;;;;25.55;15.77;;;;;;;6.51;78.59;99302.00;4954016;28;20099;-45
2020/12/07 06:15:47;;;;;;;22.77;13.88;;;;;;;6.47;78.50;99289.22;4951833;28;20044;-39
2020/12/07 06:18:35;;;;;;;27.05;16.65;;;;;;;6.36;79.85;99291.56;4962694;28;20057;-41
2020/12/07 06:21:22;;;;;;;26.65;16.40;;;;;;;6.52;78.78;99311.38;4961691;28;20042;-43
2020/12/07 06:23:49;;;;;;;;;;;;;;;6.44;78.62;99312.91;4964299;28;20047;-43
2020/12/07 06:26:17;;;;;;;26.80;15.43;;;;;;;6.57;78.34;99312.31;4962649;28;19923;-41
2020/12/07 06:28:46;;;;;;;26.75;16.27;;;;;;;6.28;79.18;99319.34;4963712;28;20075;-43
2020/12/07 06:31:18;;;;;;;27.85;16.23;;;;;;;6.39;79.47;99322.13;4963230;28;20051;-39
2020/12/07 06:33:48;;;;;;;23.80;15.23;;;;;;;6.44;79.04;99327.31;4964099;28;20053;-39
2020/12/07 06:36:34;;;;;;;24.92;16.15;;;;;;;6.37;79.38;99334.78;4968600;28;20051;-42
2020/12/07 06:39:11;;;;;;;24.02;15.85;;;;;;;6.19;79.72;99331.88;4960143;28;20047;-40
2020/12/07 06:41:44;;;;;;;26.35;16.48;;;;;;;6.57;78.75;99347.06;4962022;28;20046;-45
2020/12/07 06:44:20;;;;;;;28.80;17.10;;;;;;;6.38;78.46;99350.94;4961926;28;20075;-39
2020/12/07 06:47:13;;;;;;;23.88;14.98;;;;;;;6.43;78.25;99356.97;4984465;28;20080;-44
2020/12/07 06:49:53;;;;;;;24.90;16.48;;;;;;;6.20;79.54;99353.94;4980624;28;20045;-43
2020/12/07 06:52:25;;;;;;;26.05;16.70;;;;;;;6.44;78.61;99353.59;4993288;28;20049;-43
2020/12/07 06:55:07;;;;;;;24.92;16.52;;;;;;;6.15;79.41;99350.44;4981015;28;20153;-44
2020/12/07 06:57:51;;;;;;;26.17;16.38;;;;;;;6.28;80.00;99354.94;4988171;28;20880;-39
2020/12/07 07:00:25;;;;;;;26.45;15.82;;;;;;;6.45;78.70;99362.06;4991817;28;20502;-42
2020/12/07 07:02:59;;;;;;;27.42;15.60;;;;;;;6.47;78.48;99357.84;4973915;28;20046;-44
2020/12/07 07:05:30;;;;;;;25.08;15.43;;;;;;;6.22;79.06;99361.59;4995398;28;20453;-40
2020/12/07 07:07:57;;;;;;;27.70;17.00;;;;;;;6.17;79.83;99370.78;4982739;28;20101;-43
2020/12/07 07:10:25;;;;;;;27.05;15.35;;;;;;;6.45;78.74;99373.09;4983033;28;20062;-45
2020/12/07 07:12:52;;;;;;;24.50;15.32;;;;;;;6.36;79.09;99371.22;4993040;28;20489;-43
2020/12/07 07:15:20;;;;;;;23.08;15.55;;;;;;;6.63;78.11;99372.63;4982068;28;20043;-43
2020/12/07 07:17:47;;;;;;;24.33;14.55;;;;;;;6.50;78.54;99379.13;4983944;28;20047;-40
2020/12/07 07:20:16;;;;;;;25.60;15.32;;;;;;;6.63;78.23;99377.69;4981826;28;20043;-43
2020/12/07 07:22:48;;;;;;;24.05;15.60;;;;;;;6.21;79.37;99385.28;4982422;28;20057;-44
2020/12/07 07:30:40;;;;;;;26.55;16.25;;;;;;;6.17;79.67;99391.97;4965925;28;20043;-43
2020/12/07 07:33:07;;;;;;;23.50;15.05;;;;;;;6.10;80.61;99387.56;4972168;28;20286;-42
2020/12/07 07:35:34;;;;;;;27.80;16.17;;;;;;;6.01;80.58;99395.88;4970495;28;20051;-46
2020/12/07 07:38:01;;;;;;;22.65;15.25;;;;;;;6.57;77.95;99385.22;4972797;28;20046;-44
2020/12/07 07:40:29;;;;;;;26.70;15.40;;;;;;;6.59;77.64;99398.81;4971853;28;20050;-46
2020/12/07 07:43:02;;;;;;;26.33;14.85;;;;;;;6.38;79.20;99399.22;4977492;28;20149;-41
2020/12/07 07:45:33;;;;;;;22.30;14.77;;;;;;;6.33;79.70;99398.25;4970588;28;20053;-42
2020/12/07 07:48:10;;;;;;;25.63;15.70;;;;;;;6.09;80.60;99416.34;4977489;28;20050;-41
2020/12/07 07:59:59;;;;;;;26.20;14.95;;;;;;;6.16;80.27;99405.53;4991303;28;20502;-42
2020/12/07 08:16:19;;;;;;;26.42;15.55;;;;;;;6.02;80.56;99389.09;4990102;28;20476;-45
2020/12/07 08:18:46;;;;;;;23.38;15.07;;;;;;;6.42;79.08;99383.19;4968641;28;20047;-43
2020/12/07 08:21:24;;;;;;;22.42;15.55;;;;;;;6.04;81.01;99387.44;4965898;28;20059;-39
2020/12/07 08:23:57;;;;;;;24.05;15.25;;;;;;;6.20;80.46;99402.22;4965452;28;20050;-39
2020/12/07 08:26:24;;;;;;;22.38;15.32;;;;;;;6.41;79.87;99421.31;4947258;28;20058;-42
2020/12/07 08:28:53;;;;;;;25.55;15.55;;;;;;;6.27;79.74;99426.09;4949778;28;20590;-42
2020/12/07 08:31:21;;;;;;;25.60;14.93;;;;;;;6.26;79.25;99430.31;4950041;28;20106;-41
2020/12/07 08:34:02;;;;;;;26.25;15.50;;;;;;;6.19;80.21;99420.81;4949944;28;20055;-43
2020/12/07 08:36:31;;;;;;;22.27;14.88;;;;;;;6.46;78.99;99433.28;4959922;28;20042;-41
2020/12/07 08:38:59;;;;;;;24.48;15.07;;;;;;;6.18;80.76;99428.41;4964511;28;20054;-40
2020/12/07 08:41:33;;;;;;;25.73;15.90;;;;;;;6.19;80.07;99419.97;4953564;28;20052;-41
2020/12/07 08:44:09;;;;;;;22.33;14.55;;;;;;;6.40;79.74;99411.97;4953265;28;20419;-41
2020/12/07 08:46:44;;;;;;;23.52;14.98;;;;;;;6.38;79.39;99415.34;4952473;28;20062;-39
2020/12/07 08:49:11;;;;;;;23.73;14.68;;;;;;;6.26;80.52;99409.13;4953773;28;20046;-43
2020/12/07 08:51:38;;;;;;;22.48;14.90;;;;;;;6.19;80.37;99405.56;4971149;28;20044;-42
2020/12/07 08:54:05;;;;;;;24.42;15.38;;;;;;;6.62;79.14;99402.28;4961799;28;20047;-45
2020/12/07 08:56:32;;;;;;;25.13;15.07;;;;;;;6.69;78.61;99403.25;4981560;28;20523;-41
2020/12/07 08:58:58;;;;;;;23.80;14.57;;;;;;;6.70;78.83;99405.00;4983037;28;20499;-40
2020/12/07 09:01:25;;;;;;;23.08;14.10;;;;;;;6.38;79.25;99422.13;4984501;28;20056;-40
2020/12/07 09:03:51;;;;;;;22.77;14.57;;;;;;;6.54;79.04;99416.50;4983613;28;20502;-41
2020/12/07 09:06:20;;;;;;;25.42;14.80;;;;;;;6.35;80.04;99420.34;4983330;28;20086;-40
2020/12/07 09:08:47;;;;;;;23.83;14.40;;;;;;;6.31;80.51;99415.16;4983488;28;20161;-42
2020/12/07 09:11:17;;;;;;;25.75;16.25;;;;;;;6.19;80.31;99418.28;4997304;28;20062;-40
2020/12/07 09:13:44;;;;;;;23.00;14.95;;;;;;;6.63;79.09;99424.34;4984007;28;20137;-40
2020/12/07 09:16:11;;;;;;;21.13;13.82;;;;;;;6.60;79.08;99449.69;4981948;28;20046;-40
2020/12/07 09:18:38;;;;;;;23.52;15.10;;;;;;;6.33;80.13;99449.09;4984065;28;20046;-38
2020/12/07 09:21:06;;;;;;;22.80;14.55;;;;;;;6.77;78.28;99447.53;4989395;28;20054;-40
2020/12/07 09:23:33;;;;;;;25.67;15.13;;;;;;;6.58;79.59;99440.34;4985922;28;20159;-41
2020/12/07 09:26:01;;;;;;;26.50;15.25;;;;;;;6.28;80.44;99432.88;4982169;28;20050;-46
2020/12/07 09:28:29;;;;;;;24.98;14.40;;;;;;;6.33;80.26;99444.00;4971831;28;20053;-42
2020/12/07 09:30:55;;;;;;;23.50;13.63;;;;;;;6.50;79.88;99441.84;4961114;28;20042;-42
2020/12/07 09:33:22;;;;;;;27.05;16.98;;;;;;;6.37;80.36;99444.09;4963974;28;20073;-39
2020/12/07 09:35:50;;;;;;;24.23;14.80;;;;;;;6.39;80.38;99451.78;4963492;28;20058;-43
2020/12/07 09:38:16;;;;;;;23.83;14.98;;;;;;;6.57;79.78;99457.28;4962189;28;20146;-41
2020/12/07 09:40:43;;;;;;;23.75;15.18;;;;;;;6.34;79.99;99451.69;4984210;28;20058;-42
2020/12/07 09:43:09;;;;;;;25.73;15.15;;;;;;;6.29;80.79;99458.34;4984302;28;20047;-42
2020/12/07 09:45:36;;;;;;;22.80;15.05;;;;;;;6.54;80.21;99441.09;4978531;28;20189;-43
2020/12/07 09:48:03;;;;;;;25.40;14.15;;;;;;;6.53;79.94;99445.31;4971064;28;20047;-43
2020/12/07 09:50:33;;;;;;;22.73;14.55;;;;;;;6.74;78.96;99449.13;4970792;28;20527;-42
2020/12/07 09:53:00;;;;;;;24.20;15.32;;;;;;;6.77;79.09;99444.13;4989012;28;20046;-40
2020/12/07 09:55:27;;;;;;;24.73;15.15;;;;;;;6.69;78.98;99450.72;4994300;28;20049;-41
2020/12/07 09:57:54;;;;;;;26.95;14.85;;;;;;;6.56;80.03;99459.78;4996947;28;20046;-41
2020/12/07 10:00:20;;;;;;;21.55;15.65;;;;;;;6.41;80.10;99447.59;4991035;28;20063;-41
2020/12/07 10:02:47;;;;;;;26.35;16.92;;;;;;;6.51;80.16;99443.56;4983890;28;20046;-44
2020/12/07 10:05:14;;;;;;;24.48;14.85;;;;;;;6.68;79.12;99436.28;5000818;28;20117;-40
2020/12/07 10:07:42;;;;;;;25.45;15.55;;;;;;;6.84;79.21;99430.69;4980354;28;20049;-39
2020/12/07 10:10:10;;;;;;;27.92;15.73;;;;;;;6.83;79.06;99436.59;4967226;28;20050;-39
2020/12/07 10:12:37;;;;;;;23.70;14.60;;;;;;;6.68;79.68;99443.94;4965929;28;20059;-41
2020/12/07 10:15:06;;;;;;;23.70;14.95;;;;;;;6.90;78.85;99446.09;4966727;28;20226;-42
2020/12/07 10:17:35;;;;;;;21.05;14.85;;;;;;;6.99;78.58;99442.88;4962405;28;20050;-39
2020/12/07 10:20:04;;;;;;;23.40;14.98;;;;;;;6.68;80.20;99456.66;4954546;28;20071;-42
2020/12/07 10:22:30;;;;;;;21.08;14.27;;;;;;;6.86;79.25;99447.72;4952010;28;20465;-42
2020/12/07 10:24:57;;;;;;;22.63;14.70;;;;;;;6.98;78.92;99457.28;4953518;28;20047;-45
2020/12/07 10:27:23;;;;;;;24.75;15.85;;;;;;;7.18;77.99;99454.28;4950828;28;20047;-43
2020/12/07 10:29:50;;;;;;;22.98;14.68;;;;;;;7.27;77.88;99449.34;4951260;28;20130;-45
2020/12/07 10:32:19;;;;;;;25.15;14.43;;;;;;;7.22;78.05;99454.38;4952941;28;20179;-44
2020/12/07 10:34:48;;;;;;;25.63;14.98;;;;;;;7.13;78.14;99447.41;4962542;28;20102;-41
2020/12/07 10:37:17;;;;;;;23.33;14.30;;;;;;;7.44;77.02;99450.53;4966480;28;20418;-41
2020/12/07 10:39:44;;;;;;;23.38;14.73;;;;;;;7.33;77.61;99442.69;4953450;28;20464;-42
2020/12/07 10:42:11;;;;;;;24.33;15.07;;;;;;;7.33;77.48;99440.13;4952252;28;20042;-42
2020/12/07 10:44:37;;;;;;;25.58;14.65;;;;;;;7.24;77.91;99447.59;4950128;28;20172;-42
2020/12/07 10:47:04;;;;;;;20.75;13.75;;;;;;;7.39;78.21;99445.34;4951826;28;20223;-41
2020/12/07 10:49:30;;;;;;;25.83;14.93;;;;;;;7.43;77.21;99450.47;4948397;28;20047;-41
2020/12/07 10:51:57;;;;;;;25.65;15.48;;;;;;;7.52;76.78;99459.16;4951570;28;20567;-40
2020/12/07 10:54:23;;;;;;;23.90;15.68;;;;;;;7.18;78.26;99454.28;4950795;28;20365;-39
2020/12/07 10:56:50;;;;;;;24.23;14.23;;;;;;;7.25;78.71;99446.75;4950795;28;20056;-40
2020/12/07 10:59:17;;;;;;;24.42;15.32;;;;;;;7.02;79.67;99453.94;4951460;28;20088;-42
2020/12/07 11:01:43;;;;;;;23.38;14.45;;;;;;;7.12;79.54;99453.34;4950482;28;20061;-40
2020/12/07 11:04:10;;;;;;;23.83;15.68;;;;;;;7.18;78.62;99452.59;4952628;28;20043;-39
2020/12/07 11:06:42;;;;;;;26.45;15.73;;;;;;;7.30;77.94;99462.13;4950394;28;20066;-40
2020/12/07 11:09:11;;;;;;;25.17;14.88;;;;;;;7.49;78.01;99469.31;4952038;28;20518;-44
2020/12/07 11:11:44;;;;;;;24.63;13.73;;;;;;;7.54;77.76;99471.94;4949544;28;20058;-40
2020/12/07 11:14:11;;;;;;;24.23;15.27;;;;;;;7.59;77.46;99475.41;4952206;28;20046;-38
2020/12/07 11:16:37;;;;;;;25.70;15.07;;;;;;;7.47;78.07;99481.13;4949829;28;20058;-41
2020/12/07 11:19:04;;;;;;;23.15;15.00;;;;;;;7.29;78.70;99480.78;4951202;28;20130;-39
2020/12/07 11:21:30;;;;;;;26.33;14.25;;;;;;;7.48;78.40;99479.44;4951942;28;20050;-40
2020/12/07 11:23:57;;;;;;;20.10;13.32;;;;;;;7.42;78.58;99485.28;4959112;28;20053;-41
2020/12/07 11:26:24;;;;;;;22.85;13.95;;;;;;;7.25;78.55;99477.31;4961341;28;20043;-41
2020/12/07 11:28:51;;;;;;;27.20;14.10;;;;;;;7.59;77.96;99466.09;4961436;28;20061;-39
2020/12/07 11:31:18;;;;;;;24.08;14.25;;;;;;;7.59;78.07;99478.81;4960298;28;20145;-39
2020/12/07 11:33:45;;;;;;;23.02;14.68;;;;;;;7.29;78.73;99481.63;4977356;28;20521;-39
2020/12/07 11:36:15;;;;;;;20.23;13.63;;;;;;;7.53;78.55;99485.47;4980311;28;20058;-39
2020/12/07 11:38:51;;;;;;;24.23;14.38;;;;;;;7.49;78.38;99479.50;4981716;28;20050;-40
2020/12/07 11:46:30;;;;;;;23.30;15.05;;;;;;;7.68;78.12;99482.38;4980023;28;20058;-40
2020/12/07 11:48:57;;;;;;;22.15;14.05;;;;;;;7.64;77.92;99482.31;4960974;28;20051;-40
2020/12/07 11:51:27;;;;;;;22.42;14.00;;;;;;;7.68;78.44;99488.31;4961700;28;20054;-40
2020/12/07 11:53:55;;;;;;;20.65;14.55;;;;;;;7.61;78.48;99492.44;4961563;28;20408;-40
2020/12/07 11:56:36;;;;;;;23.42;15.63;;;;;;;7.36;79.49;99486.03;4967534;28;20511;-42
2020/12/07 11:59:05;;;;;;;25.58;14.75;;;;;;;7.46;79.45;99492.16;4951692;28;20067;-42
2020/12/07 12:01:36;;;;;;;24.42;14.98;;;;;;;7.86;77.61;99490.34;4952430;28;20051;-39
2020/12/07 12:04:04;;;;;;;24.95;14.13;;;;;;;7.82;77.91;99512.34;4957959;28;20054;-45
2020/12/07 12:06:34;;;;;;;24.38;14.80;;;;;;;7.81;77.74;99513.19;4962879;28;20139;-39